createdAt,value
2018-02-03T00:00:34.508Z,998.09
2018-02-03T00:01:23.692Z,998.11
2018-02-03T00:03:28.431Z,998.1
2018-02-03T00:04:14.971Z,998.11
2018-02-03T00:05:03.483Z,998.11
2018-02-03T00:05:52.468Z,998.15
2018-02-03T00:06:40.869Z,998.13
2018-02-03T00:07:29.389Z,998.14
2018-02-03T00:08:18.075Z,998.16
2018-02-03T00:09:07.522Z,998.14
2018-02-03T00:10:00.959Z,998.13
2018-02-03T00:10:52.464Z,998.15
2018-02-03T00:11:47.372Z,998.16
2018-02-03T00:12:37.470Z,998.17
2018-02-03T00:13:26.223Z,998.13
2018-02-03T00:14:23.315Z,998.12
2018-02-03T00:15:11.678Z,998.2
2018-02-03T00:16:01.126Z,998.19
2018-02-03T00:16:52.347Z,998.25
2018-02-03T00:17:41.189Z,998.2
2018-02-03T00:18:30.389Z,998.23
2018-02-03T00:19:23.353Z,998.24
2018-02-03T00:20:12.993Z,998.25
2018-02-03T00:21:02.230Z,998.22
2018-02-03T00:21:50.662Z,998.19
2018-02-03T00:22:39.243Z,998.27
2018-02-03T00:23:34.524Z,998.22
2018-02-03T00:26:26.963Z,998.19
2018-02-03T00:29:16.090Z,998.19
2018-02-03T00:30:03.213Z,998.17
2018-02-03T00:30:53.600Z,998.17
2018-02-03T00:31:45.093Z,998.17
2018-02-03T00:32:30.187Z,998.16
2018-02-03T00:33:14.219Z,998.19
2018-02-03T00:33:54.236Z,998.19
2018-02-03T00:34:36.165Z,998.16
2018-02-03T00:35:16.821Z,998.21
2018-02-03T00:35:57.806Z,998.19
2018-02-03T00:36:38.102Z,998.16
2018-02-03T00:37:20.083Z,998.2
2018-02-03T00:38:02.220Z,998.19
2018-02-03T00:38:42.615Z,998.22
2018-02-03T00:39:22.994Z,998.23
2018-02-03T00:40:03.409Z,998.23
2018-02-03T00:40:43.918Z,998.22
2018-02-03T00:41:24.339Z,998.26
2018-02-03T00:42:04.747Z,998.24
2018-02-03T00:42:45.149Z,998.23
2018-02-03T00:43:26.569Z,998.23
2018-02-03T00:44:11.088Z,998.23
2018-02-03T00:44:51.352Z,998.22
2018-02-03T00:45:31.750Z,998.21
2018-02-03T00:46:12.167Z,998.22
2018-02-03T00:46:53.779Z,998.18
2018-02-03T00:47:33.323Z,998.21
2018-02-03T00:48:16.992Z,998.22
2018-02-03T00:48:57.347Z,998.2
2018-02-03T00:49:38.611Z,998.21
2018-02-03T00:50:19.187Z,998.17
2018-02-03T00:51:01.399Z,998.16
2018-02-03T00:51:41.468Z,998.12
2018-02-03T00:52:22.812Z,998.14
2018-02-03T00:53:03.473Z,998.13
2018-02-03T00:53:44.372Z,998.11
2018-02-03T00:54:27.458Z,998.11
2018-02-03T00:55:08.453Z,998.06
2018-02-03T00:55:55.308Z,998.12
2018-02-03T00:56:35.701Z,998.04
2018-02-03T00:57:16.692Z,998.04
2018-02-03T00:57:58.125Z,998.07
2018-02-03T00:58:38.570Z,998.03
2018-02-03T01:01:06.321Z,998.03
2018-02-03T01:01:58.886Z,998.02
2018-02-03T01:04:50.038Z,998.05
2018-02-03T01:05:38.375Z,998
2018-02-03T01:06:26.703Z,997.94
2018-02-03T01:07:11.784Z,997.99
2018-02-03T01:07:52.190Z,997.96
2018-02-03T01:08:34.027Z,997.98
2018-02-03T01:11:10.540Z,997.94
2018-02-03T01:13:41.975Z,997.96
2018-02-03T01:14:29.704Z,997.97
2018-02-03T01:15:26.232Z,997.95
2018-02-03T01:17:19.418Z,997.95
2018-02-03T01:18:08.918Z,997.99
2018-02-03T01:18:56.689Z,997.98
2018-02-03T01:19:45.780Z,998
2018-02-03T01:20:36.155Z,998.02
2018-02-03T01:21:24.500Z,998.01
2018-02-03T01:22:14.789Z,998.02
2018-02-03T01:23:03.761Z,998.05
2018-02-03T01:23:53.482Z,998.01
2018-02-03T01:24:42.273Z,998.07
2018-02-03T01:25:30.854Z,998.01
2018-02-03T01:26:19.594Z,998.03
2018-02-03T01:27:07.775Z,998.04
2018-02-03T01:27:55.389Z,998.01
2018-02-03T01:28:45.470Z,998
2018-02-03T01:29:34.178Z,998.04
2018-02-03T01:30:22.983Z,998
2018-02-03T01:31:12.959Z,998.04
2018-02-03T01:31:52.477Z,998.07
2018-02-03T01:32:33.989Z,998.13
2018-02-03T01:33:16.038Z,998.08
2018-02-03T01:33:56.298Z,998.1
2018-02-03T01:34:37.147Z,998.11
2018-02-03T01:35:23.726Z,998.09
2018-02-03T01:36:05.006Z,998.12
2018-02-03T01:36:45.416Z,998.13
2018-02-03T01:37:26.260Z,998.15
2018-02-03T01:38:08.573Z,998.11
2018-02-03T01:38:49.262Z,998.15
2018-02-03T01:39:30.009Z,998.17
2018-02-03T01:40:12.186Z,998.15
2018-02-03T01:40:52.933Z,998.11
2018-02-03T01:41:36.196Z,998.18
2018-02-03T01:42:16.875Z,998.19
2018-02-03T01:42:58.680Z,998.2
2018-02-03T01:43:40.306Z,998.2
2018-02-03T01:44:20.661Z,998.21
2018-02-03T01:45:01.079Z,998.23
2018-02-03T01:45:41.542Z,998.24
2018-02-03T01:46:22.257Z,998.24
2018-02-03T01:47:02.644Z,998.24
2018-02-03T01:47:43.729Z,998.19
2018-02-03T01:48:26.140Z,998.23
2018-02-03T01:49:06.532Z,998.25
2018-02-03T01:49:46.929Z,998.21
2018-02-03T01:50:27.282Z,998.17
2018-02-03T01:51:07.689Z,998.19
2018-02-03T01:51:50.097Z,998.2
2018-02-03T01:52:30.430Z,998.16
2018-02-03T01:53:11.986Z,998.18
2018-02-03T01:53:56.476Z,998.17
2018-02-03T01:54:36.998Z,998.18
2018-02-03T01:56:39.826Z,998.18
2018-02-03T01:57:28.294Z,998.19
2018-02-03T01:58:16.832Z,998.22
2018-02-03T01:59:06.206Z,998.2
2018-02-03T01:59:54.167Z,998.26
2018-02-03T02:00:42.691Z,998.26
2018-02-03T02:01:31.223Z,998.26
2018-02-03T02:02:19.791Z,998.26
2018-02-03T02:03:08.519Z,998.27
2018-02-03T02:03:56.833Z,998.27
2018-02-03T02:04:45.679Z,998.28
2018-02-03T02:05:34.701Z,998.29
2018-02-03T02:06:23.284Z,998.33
2018-02-03T02:07:11.600Z,998.31
2018-02-03T02:08:03.351Z,998.31
2018-02-03T02:08:53.794Z,998.31
2018-02-03T02:09:43.522Z,998.33
2018-02-03T02:10:32.796Z,998.37
2018-02-03T02:11:22.646Z,998.36
2018-02-03T02:12:11.482Z,998.37
2018-02-03T02:13:00.559Z,998.4
2018-02-03T02:13:49.026Z,998.37
2018-02-03T02:14:38.054Z,998.4
2018-02-03T02:15:27.256Z,998.4
2018-02-03T02:16:09.004Z,998.4
2018-02-03T02:16:49.408Z,998.41
2018-02-03T02:17:31.163Z,998.43
2018-02-03T02:18:11.712Z,998.48
2018-02-03T02:18:53.538Z,998.47
2018-02-03T02:19:34.472Z,998.47
2018-02-03T02:21:37.802Z,998.46
2018-02-03T02:22:25.864Z,998.49
2018-02-03T02:23:14.358Z,998.52
2018-02-03T02:24:04.093Z,998.5
2018-02-03T02:24:52.674Z,998.48
2018-02-03T02:25:40.910Z,998.47
2018-02-03T02:26:29.651Z,998.49
2018-02-03T02:27:17.880Z,998.48
2018-02-03T02:28:06.749Z,998.5
2018-02-03T02:28:54.918Z,998.5
2018-02-03T02:29:43.497Z,998.48
2018-02-03T02:30:33.204Z,998.46
2018-02-03T02:31:21.367Z,998.44
2018-02-03T02:32:10.035Z,998.43
2018-02-03T02:33:04.479Z,998.44
2018-02-03T02:33:52.051Z,998.42
2018-02-03T02:34:40.721Z,998.41
2018-02-03T02:35:29.324Z,998.43
2018-02-03T02:36:17.920Z,998.43
2018-02-03T02:37:06.805Z,998.46
2018-02-03T02:37:54.846Z,998.43
2018-02-03T02:38:43.517Z,998.44
2018-02-03T02:39:32.745Z,998.43
2018-02-03T02:40:21.059Z,998.41
2018-02-03T02:41:11.100Z,998.45
2018-02-03T02:42:00.055Z,998.36
2018-02-03T02:42:48.751Z,998.38
2018-02-03T02:43:38.046Z,998.39
2018-02-03T02:44:26.490Z,998.4
2018-02-03T02:45:13.001Z,998.41
2018-02-03T02:46:00.134Z,998.4
2018-02-03T02:46:47.971Z,998.45
2018-02-03T02:47:36.626Z,998.44
2018-02-03T02:48:24.953Z,998.41
2018-02-03T02:49:13.384Z,998.45
2018-02-03T02:50:01.937Z,998.43
2018-02-03T02:50:50.517Z,998.46
2018-02-03T02:51:39.801Z,998.43
2018-02-03T02:52:27.357Z,998.43
2018-02-03T02:53:16.280Z,998.46
2018-02-03T02:54:04.814Z,998.43
2018-02-03T02:54:53.132Z,998.45
2018-02-03T02:55:41.480Z,998.41
2018-02-03T02:56:30.232Z,998.36
2018-02-03T02:57:16.419Z,998.39
2018-02-03T02:57:56.835Z,998.37
2018-02-03T02:58:37.528Z,998.37
2018-02-03T02:59:17.787Z,998.4
2018-02-03T02:59:58.154Z,998.37
2018-02-03T03:00:38.540Z,998.4
2018-02-03T03:01:19.916Z,998.37
2018-02-03T03:02:00.338Z,998.4
2018-02-03T03:02:40.972Z,998.38
2018-02-03T03:03:21.234Z,998.35
2018-02-03T03:04:01.799Z,998.39
2018-02-03T03:04:42.150Z,998.39
2018-02-03T03:05:22.572Z,998.38
2018-02-03T03:06:02.949Z,998.38
2018-02-03T03:06:43.400Z,998.36
2018-02-03T03:07:23.752Z,998.42
2018-02-03T03:08:04.206Z,998.4
2018-02-03T03:08:44.580Z,998.41
2018-02-03T03:09:25.020Z,998.4
2018-02-03T03:10:05.354Z,998.43
2018-02-03T03:10:45.888Z,998.41
2018-02-03T03:11:26.353Z,998.44
2018-02-03T03:12:06.764Z,998.43
2018-02-03T03:12:47.243Z,998.44
2018-02-03T03:13:27.575Z,998.42
2018-02-03T03:14:07.980Z,998.48
2018-02-03T03:14:48.379Z,998.42
2018-02-03T03:15:28.729Z,998.44
2018-02-03T03:16:09.107Z,998.4
2018-02-03T03:16:49.519Z,998.38
2018-02-03T03:17:29.983Z,998.42
2018-02-03T03:18:10.446Z,998.4
2018-02-03T03:18:50.815Z,998.41
2018-02-03T03:19:31.228Z,998.42
2018-02-03T03:22:02.848Z,998.37
2018-02-03T03:22:51.484Z,998.35
2018-02-03T03:23:40.334Z,998.35
2018-02-03T03:24:28.883Z,998.37
2018-02-03T03:25:17.377Z,998.35
2018-02-03T03:26:06.212Z,998.37
2018-02-03T03:26:54.482Z,998.37
2018-02-03T03:27:43.227Z,998.33
2018-02-03T03:28:31.365Z,998.36
2018-02-03T03:29:20.270Z,998.36
2018-02-03T03:30:08.607Z,998.37
2018-02-03T03:30:56.805Z,998.35
2018-02-03T03:31:45.942Z,998.37
2018-02-03T03:32:34.674Z,998.37
2018-02-03T03:33:20.118Z,998.33
2018-02-03T03:34:08.275Z,998.32
2018-02-03T03:34:56.738Z,998.36
2018-02-03T03:35:45.355Z,998.35
2018-02-03T03:36:34.071Z,998.36
2018-02-03T03:37:22.375Z,998.35
2018-02-03T03:38:10.597Z,998.29
2018-02-03T03:38:53.904Z,998.29
2018-02-03T03:39:34.331Z,998.26
2018-02-03T03:40:14.691Z,998.28
2018-02-03T03:40:55.063Z,998.24
2018-02-03T03:41:35.467Z,998.27
2018-02-03T03:42:15.818Z,998.26
2018-02-03T03:42:56.851Z,998.24
2018-02-03T03:43:37.318Z,998.31
2018-02-03T03:44:17.740Z,998.27
2018-02-03T03:44:58.160Z,998.29
2018-02-03T03:45:38.547Z,998.28
2018-02-03T03:46:18.913Z,998.29
2018-02-03T03:46:59.303Z,998.31
2018-02-03T03:47:39.711Z,998.29
2018-02-03T03:48:20.152Z,998.34
2018-02-03T03:49:00.496Z,998.3
2018-02-03T03:49:40.923Z,998.33
2018-02-03T03:50:21.332Z,998.33
2018-02-03T03:51:01.730Z,998.33
2018-02-03T03:51:42.136Z,998.34
2018-02-03T03:52:22.551Z,998.33
2018-02-03T03:53:02.962Z,998.34
2018-02-03T03:53:43.374Z,998.28
2018-02-03T03:54:23.754Z,998.34
2018-02-03T03:55:04.177Z,998.32
2018-02-03T03:55:44.537Z,998.33
2018-02-03T03:56:24.942Z,998.28
2018-02-03T03:57:05.363Z,998.33
2018-02-03T03:57:45.723Z,998.29
2018-02-03T03:58:26.090Z,998.31
2018-02-03T03:59:06.500Z,998.31
2018-02-03T03:59:46.884Z,998.29
2018-02-03T04:00:27.309Z,998.29
2018-02-03T04:01:07.656Z,998.28
2018-02-03T04:01:48.049Z,998.27
2018-02-03T04:02:28.443Z,998.29
2018-02-03T04:03:08.877Z,998.24
2018-02-03T04:03:49.307Z,998.27
2018-02-03T04:42:20.253Z,997.94
2018-02-03T04:47:58.371Z,997.86
2018-02-03T04:52:20.398Z,997.9
2018-02-03T04:53:07.958Z,997.91
2018-02-03T04:57:43.498Z,997.85
2018-02-03T05:00:16.639Z,997.87
2018-02-03T05:02:13.070Z,997.85
2018-02-03T05:03:04.618Z,997.87
2018-02-03T05:05:07.384Z,997.82
2018-02-03T05:05:59.773Z,997.8
2018-02-03T05:06:53.394Z,997.77
2018-02-03T05:09:30.334Z,997.79
2018-02-03T05:11:36.075Z,997.82
2018-02-03T05:12:24.753Z,997.8
2018-02-03T05:13:16.149Z,997.77
2018-02-03T05:14:58.737Z,997.81
2018-02-03T05:16:56.255Z,997.78
2018-02-03T05:17:48.736Z,997.82
2018-02-03T05:18:41.084Z,997.8
2018-02-03T05:19:33.604Z,997.8
2018-02-03T05:20:33.263Z,997.77
2018-02-03T05:21:29.142Z,997.77
2018-02-03T05:22:22.027Z,997.74
2018-02-03T05:23:22.330Z,997.71
2018-02-03T05:24:17.741Z,997.75
2018-02-03T05:25:10.304Z,997.73
2018-02-03T05:26:02.296Z,997.72
2018-02-03T05:26:54.503Z,997.7
2018-02-03T05:27:46.781Z,997.71
2018-02-03T05:28:38.799Z,997.74
2018-02-03T05:29:31.675Z,997.74
2018-02-03T05:30:24.598Z,997.74
2018-02-03T05:31:17.075Z,997.73
2018-02-03T05:32:10.222Z,997.72
2018-02-03T05:33:02.577Z,997.7
2018-02-03T05:33:54.779Z,997.73
2018-02-03T05:34:46.891Z,997.69
2018-02-03T05:35:40.095Z,997.74
2018-02-03T05:36:32.162Z,997.75
2018-02-03T05:37:24.031Z,997.73
2018-02-03T05:38:16.411Z,997.72
2018-02-03T05:39:09.949Z,997.78
2018-02-03T05:40:02.877Z,997.68
2018-02-03T05:40:55.222Z,997.71
2018-02-03T05:41:47.376Z,997.67
2018-02-03T05:42:39.317Z,997.69
2018-02-03T05:43:32.092Z,997.73
2018-02-03T05:44:24.138Z,997.73
2018-02-03T05:45:16.518Z,997.71
2018-02-03T05:46:08.494Z,997.71
2018-02-03T05:47:00.150Z,997.73
2018-02-03T05:47:52.589Z,997.74
2018-02-03T05:48:44.572Z,997.73
2018-02-03T05:49:36.853Z,997.77
2018-02-03T05:50:29.136Z,997.74
2018-02-03T05:51:21.722Z,997.73
2018-02-03T05:52:14.579Z,997.71
2018-02-03T05:53:06.597Z,997.76
2018-02-03T05:53:59.153Z,997.71
2018-02-03T05:54:52.390Z,997.77
2018-02-03T05:55:45.196Z,997.78
2018-02-03T05:56:37.605Z,997.77
2018-02-03T05:57:30.186Z,997.74
2018-02-03T05:58:22.704Z,997.75
2018-02-03T05:59:14.839Z,997.73
2018-02-03T06:00:08.219Z,997.74
2018-02-03T06:01:00.593Z,997.75
2018-02-03T06:01:53.180Z,997.74
2018-02-03T06:02:45.947Z,997.72
2018-02-03T06:03:39.259Z,997.73
2018-02-03T06:04:31.824Z,997.69
2018-02-03T06:05:24.440Z,997.75
2018-02-03T06:06:16.461Z,997.75
2018-02-03T06:07:08.846Z,997.71
2018-02-03T06:07:48.966Z,997.72
2018-02-03T06:08:29.681Z,997.69
2018-02-03T06:09:10.393Z,997.7
2018-02-03T06:09:51.219Z,997.72
2018-02-03T06:10:32.685Z,997.71
2018-02-03T06:11:13.684Z,997.7
2018-02-03T06:11:56.201Z,997.75
2018-02-03T06:12:38.873Z,997.72
2018-02-03T06:14:46.019Z,997.74
2018-02-03T06:15:38.388Z,997.71
2018-02-03T06:16:31.148Z,997.73
2018-02-03T06:17:24.480Z,997.75
2018-02-03T06:18:17.172Z,997.73
2018-02-03T06:19:09.493Z,997.74
2018-02-03T06:20:02.483Z,997.72
2018-02-03T06:20:54.807Z,997.68
2018-02-03T06:21:48.492Z,997.68
2018-02-03T06:22:40.244Z,997.67
2018-02-03T06:23:32.969Z,997.66
2018-02-03T06:24:27.867Z,997.66
2018-02-03T06:25:19.877Z,997.67
2018-02-03T06:26:11.992Z,997.67
2018-02-03T06:27:04.380Z,997.71
2018-02-03T06:27:56.894Z,997.67
2018-02-03T06:28:49.542Z,997.67
2018-02-03T06:29:41.765Z,997.7
2018-02-03T06:30:34.132Z,997.7
2018-02-03T06:31:26.242Z,997.69
2018-02-03T06:32:19.140Z,997.66
2018-02-03T06:33:11.536Z,997.65
2018-02-03T06:34:03.938Z,997.66
2018-02-03T06:34:56.619Z,997.67
2018-02-03T06:35:48.987Z,997.66
2018-02-03T06:36:41.480Z,997.69
2018-02-03T06:37:34.286Z,997.7
2018-02-03T06:38:26.514Z,997.67
2018-02-03T06:39:18.937Z,997.66
2018-02-03T06:40:11.468Z,997.66
2018-02-03T06:41:03.913Z,997.68
2018-02-03T06:41:56.154Z,997.67
2018-02-03T06:42:48.120Z,997.67
2018-02-03T06:43:40.982Z,997.67
2018-02-03T06:44:34.119Z,997.67
2018-02-03T06:45:26.393Z,997.69
2018-02-03T06:46:19.800Z,997.7
2018-02-03T06:47:12.332Z,997.66
2018-02-03T06:48:05.365Z,997.68
2018-02-03T06:48:57.533Z,997.69
2018-02-03T06:49:49.986Z,997.7
2018-02-03T06:50:43.111Z,997.7
2018-02-03T06:51:35.536Z,997.72
2018-02-03T06:52:29.008Z,997.7
2018-02-03T06:53:22.881Z,997.67
2018-02-03T06:54:14.989Z,997.69
2018-02-03T06:55:08.251Z,997.7
2018-02-03T06:56:01.307Z,997.68
2018-02-03T06:56:55.272Z,997.68
2018-02-03T06:57:47.475Z,997.74
2018-02-03T06:58:40.503Z,997.72
2018-02-03T06:59:32.958Z,997.7
2018-02-03T07:00:25.726Z,997.72
2018-02-03T07:01:17.861Z,997.71
2018-02-03T07:02:09.987Z,997.66
2018-02-03T07:03:02.001Z,997.69
2018-02-03T07:03:54.277Z,997.71
2018-02-03T07:04:46.826Z,997.69
2018-02-03T07:05:40.680Z,997.67
2018-02-03T07:06:33.240Z,997.73
2018-02-03T07:07:25.455Z,997.68
2018-02-03T07:08:18.038Z,997.73
2018-02-03T07:09:10.571Z,997.74
2018-02-03T07:10:03.345Z,997.75
2018-02-03T07:10:56.346Z,997.69
2018-02-03T07:11:49.653Z,997.7
2018-02-03T07:12:42.984Z,997.73
2018-02-03T07:13:36.485Z,997.7
2018-02-03T07:14:30.038Z,997.7
2018-02-03T07:15:22.591Z,997.67
2018-02-03T07:16:14.993Z,997.71
2018-02-03T07:17:07.305Z,997.73
2018-02-03T07:18:00.979Z,997.7
2018-02-03T07:18:54.453Z,997.74
2018-02-03T07:19:39.901Z,997.75
2018-02-03T07:20:20.418Z,997.75
2018-02-03T07:21:01.273Z,997.73
2018-02-03T07:21:41.948Z,997.72
2018-02-03T07:22:22.874Z,997.72
2018-02-03T07:23:04.089Z,997.75
2018-02-03T07:23:44.930Z,997.7
2018-02-03T07:24:26.096Z,997.72
2018-02-03T07:25:06.695Z,997.69
2018-02-03T07:25:47.824Z,997.67
2018-02-03T07:26:28.952Z,997.67
2018-02-03T07:27:09.700Z,997.67
2018-02-03T07:27:50.250Z,997.65
2018-02-03T07:28:30.839Z,997.65
2018-02-03T07:29:11.864Z,997.65
2018-02-03T07:29:53.141Z,997.62
2018-02-03T07:30:34.424Z,997.66
2018-02-03T07:31:15.247Z,997.63
2018-02-03T07:31:56.602Z,997.65
2018-02-03T07:32:37.830Z,997.66
2018-02-03T07:33:18.760Z,997.65
2018-02-03T07:34:00.319Z,997.66
2018-02-03T07:34:41.301Z,997.64
2018-02-03T07:35:22.253Z,997.65
2018-02-03T07:36:02.945Z,997.63
2018-02-03T07:36:43.359Z,997.7
2018-02-03T07:37:24.442Z,997.7
2018-02-03T07:38:05.701Z,997.69
2018-02-03T07:38:46.679Z,997.69
2018-02-03T07:39:27.430Z,997.67
2018-02-03T07:40:07.891Z,997.67
2018-02-03T07:40:48.582Z,997.74
2018-02-03T07:41:29.782Z,997.71
2018-02-03T07:42:10.641Z,997.7
2018-02-03T07:42:51.110Z,997.71
2018-02-03T07:43:32.028Z,997.67
2018-02-03T07:44:12.511Z,997.69
2018-02-03T07:44:53.236Z,997.67
2018-02-03T07:45:33.967Z,997.66
2018-02-03T07:46:14.526Z,997.61
2018-02-03T07:46:55.419Z,997.65
2018-02-03T07:47:36.062Z,997.66
2018-02-03T07:48:16.900Z,997.66
2018-02-03T07:48:57.467Z,997.63
2018-02-03T07:49:38.163Z,997.67
2018-02-03T07:50:18.640Z,997.65
2018-02-03T07:50:59.295Z,997.69
2018-02-03T07:51:39.672Z,997.65
2018-02-03T07:52:23.045Z,997.68
2018-02-03T07:53:03.812Z,997.68
2018-02-03T07:53:44.486Z,997.62
2018-02-03T07:54:25.147Z,997.64
2018-02-03T07:55:06.370Z,997.61
2018-02-03T07:55:46.976Z,997.61
2018-02-03T07:56:27.902Z,997.61
2018-02-03T07:57:08.705Z,997.59
2018-02-03T07:57:49.175Z,997.6
2018-02-03T07:58:29.982Z,997.6
2018-02-03T07:59:10.628Z,997.58
2018-02-03T07:59:51.554Z,997.6
2018-02-03T08:00:32.324Z,997.59
2018-02-03T08:01:12.896Z,997.62
2018-02-03T08:01:53.555Z,997.59
2018-02-03T08:02:34.041Z,997.61
2018-02-03T08:03:14.474Z,997.61
2018-02-03T08:03:55.482Z,997.6
2018-02-03T08:04:36.027Z,997.6
2018-02-03T08:05:16.518Z,997.62
2018-02-03T08:05:57.109Z,997.6
2018-02-03T08:06:37.848Z,997.6
2018-02-03T08:07:18.348Z,997.64
2018-02-03T08:07:58.858Z,997.62
2018-02-03T08:08:39.623Z,997.64
2018-02-03T08:09:20.171Z,997.64
2018-02-03T08:10:00.788Z,997.66
2018-02-03T08:10:41.624Z,997.67
2018-02-03T08:11:22.479Z,997.66
2018-02-03T08:12:03.192Z,997.7
2018-02-03T08:12:43.770Z,997.7
2018-02-03T08:13:24.746Z,997.71
2018-02-03T08:14:05.482Z,997.7
2018-02-03T08:14:46.159Z,997.69
2018-02-03T08:15:26.870Z,997.68
2018-02-03T08:16:07.211Z,997.67
2018-02-03T08:16:48.194Z,997.69
2018-02-03T08:17:28.708Z,997.68
2018-02-03T08:18:09.474Z,997.65
2018-02-03T08:18:49.998Z,997.65
2018-02-03T08:19:31.014Z,997.65
2018-02-03T08:20:11.671Z,997.64
2018-02-03T08:20:52.655Z,997.66
2018-02-03T08:21:33.702Z,997.66
2018-02-03T08:22:14.972Z,997.65
2018-02-03T08:22:56.549Z,997.63
2018-02-03T08:23:37.649Z,997.65
2018-02-03T08:24:18.525Z,997.62
2018-02-03T08:24:59.694Z,997.63
2018-02-03T08:25:41.188Z,997.64
2018-02-03T08:26:22.553Z,997.6
2018-02-03T08:27:03.265Z,997.62
2018-02-03T08:27:45.177Z,997.56
2018-02-03T08:28:26.284Z,997.58
2018-02-03T08:29:06.939Z,997.59
2018-02-03T08:29:47.651Z,997.54
2018-02-03T08:30:28.850Z,997.53
2018-02-03T08:31:09.852Z,997.54
2018-02-03T08:31:51.150Z,997.52
2018-02-03T08:32:32.148Z,997.52
2018-02-03T08:33:12.935Z,997.51
2018-02-03T08:33:54.172Z,997.52
2018-02-03T08:34:34.607Z,997.5
2018-02-03T08:35:15.621Z,997.11
2018-02-03T08:35:56.364Z,997.5
2018-02-03T08:36:37.251Z,997.5
2018-02-03T08:37:18.241Z,997.54
2018-02-03T08:37:58.704Z,997.58
2018-02-03T08:38:39.404Z,997.54
2018-02-03T08:39:20.141Z,997.53
2018-02-03T08:40:00.414Z,997.52
2018-02-03T08:40:41.012Z,997.54
2018-02-03T08:41:22.117Z,997.53
2018-02-03T08:42:02.720Z,997.51
2018-02-03T08:42:43.311Z,997.53
2018-02-03T08:43:24.052Z,997.5
2018-02-03T08:44:04.581Z,997.57
2018-02-03T08:44:44.961Z,997.54
2018-02-03T08:45:25.658Z,997.55
2018-02-03T08:46:06.320Z,997.52
2018-02-03T08:46:46.757Z,997.5
2018-02-03T08:47:27.563Z,997.52
2018-02-03T08:48:08.026Z,997.5
2018-02-03T08:48:48.441Z,997.48
2018-02-03T08:49:29.174Z,997.49
2018-02-03T08:50:09.994Z,997.47
2018-02-03T08:50:50.569Z,997.46
2018-02-03T08:51:31.294Z,997.46
2018-02-03T08:52:11.914Z,997.47
2018-02-03T08:52:52.430Z,997.48
2018-02-03T08:53:32.788Z,997.44
2018-02-03T08:54:13.610Z,997.46
2018-02-03T08:54:54.286Z,997.46
2018-02-03T08:55:34.760Z,997.49
2018-02-03T08:56:15.128Z,997.49
2018-02-03T08:56:55.788Z,997.54
2018-02-03T08:57:36.335Z,997.52
2018-02-03T08:58:17.015Z,997.52
2018-02-03T08:58:57.400Z,997.52
2018-02-03T08:59:38.043Z,997.53
2018-02-03T09:00:18.532Z,997.48
2018-02-03T09:00:58.889Z,997.52
2018-02-03T09:01:39.767Z,997.5
2018-02-03T09:02:20.387Z,997.53
2018-02-03T09:03:00.951Z,997.53
2018-02-03T09:03:41.790Z,997.52
2018-02-03T09:04:22.653Z,997.51
2018-02-03T09:05:03.242Z,997.52
2018-02-03T09:05:43.751Z,997.54
2018-02-03T09:06:24.671Z,997.52
2018-02-03T09:07:05.763Z,997.54
2018-02-03T09:07:46.356Z,997.52
2018-02-03T09:08:26.899Z,997.55
2018-02-03T09:09:07.751Z,997.52
2018-02-03T09:09:48.059Z,997.54
2018-02-03T09:10:28.800Z,997.51
2018-02-03T09:11:09.355Z,997.56
2018-02-03T09:11:50.004Z,997.52
2018-02-03T09:12:30.759Z,997.52
2018-02-03T09:13:11.734Z,997.54
2018-02-03T09:13:53.138Z,997.52
2018-02-03T09:14:34.717Z,997.52
2018-02-03T09:15:15.340Z,997.52
2018-02-03T09:15:55.882Z,997.53
2018-02-03T09:16:36.471Z,997.51
2018-02-03T09:17:18.070Z,997.49
2018-02-03T09:17:58.768Z,997.52
2018-02-03T09:18:39.257Z,997.54
2018-02-03T09:19:20.027Z,997.55
2018-02-03T09:20:00.451Z,997.5
2018-02-03T09:20:41.155Z,997.52
2018-02-03T09:21:22.004Z,997.51
2018-02-03T09:22:02.870Z,997.56
2018-02-03T09:22:43.636Z,997.57
2018-02-03T09:23:24.200Z,997.53
2018-02-03T09:24:05.392Z,997.54
2018-02-03T09:24:46.364Z,997.59
2018-02-03T09:25:27.036Z,997.57
2018-02-03T09:26:08.522Z,997.58
2018-02-03T09:26:49.532Z,997.53
2018-02-03T09:27:36.392Z,997.52
2018-02-03T09:28:17.375Z,997.55
2018-02-03T09:28:57.935Z,997.57
2018-02-03T09:29:38.504Z,997.53
2018-02-03T09:30:19.939Z,997.55
2018-02-03T09:31:00.137Z,997.53
2018-02-03T09:31:40.595Z,997.53
2018-02-03T09:32:21.330Z,997.51
2018-02-03T09:33:01.871Z,997.53
2018-02-03T09:33:42.676Z,997.47
2018-02-03T09:34:22.930Z,997.48
2018-02-03T09:35:04.201Z,997.49
2018-02-03T09:35:49.165Z,997.49
2018-02-03T09:36:37.061Z,997.46
2018-02-03T09:37:17.582Z,997.46
2018-02-03T09:37:57.893Z,997.44
2018-02-03T09:38:38.324Z,997.45
2018-02-03T09:39:22.574Z,997.46
2018-02-03T09:42:28.305Z,997.49
2018-02-03T09:43:20.737Z,997.44
2018-02-03T09:44:13.208Z,997.43
2018-02-03T09:45:07.009Z,997.43
2018-02-03T09:46:00.981Z,997.41
2018-02-03T09:46:54.366Z,997.45
2018-02-03T09:47:46.538Z,997.47
2018-02-03T09:48:46.883Z,997.42
2018-02-03T09:49:49.155Z,997.45
2018-02-03T09:50:48.323Z,997.51
2018-02-03T09:51:48.527Z,997.5
2018-02-03T09:52:42.524Z,997.51
2018-02-03T09:53:29.412Z,997.51
2018-02-03T09:54:09.649Z,997.52
2018-02-03T09:54:50.081Z,997.52
2018-02-03T09:55:30.492Z,997.53
2018-02-03T09:56:10.919Z,997.51
2018-02-03T09:56:51.267Z,997.5
2018-02-03T09:57:31.691Z,997.55
2018-02-03T09:58:12.151Z,997.49
2018-02-03T09:58:52.498Z,997.53
2018-02-03T09:59:32.909Z,997.52
2018-02-03T10:00:13.331Z,997.56
2018-02-03T10:00:53.740Z,997.5
2018-02-03T10:01:34.131Z,997.51
2018-02-03T10:02:14.583Z,997.5
2018-02-03T10:02:54.978Z,997.5
2018-02-03T10:03:35.375Z,997.49
2018-02-03T10:04:15.885Z,997.49
2018-02-03T10:04:56.265Z,997.5
2018-02-03T10:43:35.055Z,997.06
2018-02-03T10:44:20.348Z,997.12
2018-02-03T10:45:00.391Z,997.17
2018-02-03T10:45:40.793Z,997.17
2018-02-03T10:46:21.197Z,997.13
2018-02-03T10:47:02.504Z,997.12
2018-02-03T10:47:42.844Z,997.13
2018-02-03T10:48:23.218Z,997.12
2018-02-03T10:49:03.969Z,997.12
2018-02-03T10:49:45.146Z,997.11
2018-02-03T10:50:31.095Z,997.14
2018-02-03T10:51:14.903Z,997.13
2018-02-03T10:51:57.410Z,997.11
2018-02-03T10:52:37.783Z,997.12
2018-02-03T10:53:18.444Z,997.11
2018-02-03T10:54:01.578Z,997.12
2018-02-03T10:54:42.601Z,997.13
2018-02-03T10:55:23.189Z,997.12
2018-02-03T10:57:53.287Z,997.15
2018-02-03T10:59:42.600Z,997.09
2018-02-03T11:00:23.345Z,996.87
2018-02-03T11:02:49.061Z,997.07
2018-02-03T11:03:42.827Z,997.08
2018-02-03T11:04:55.561Z,997.02
2018-02-03T11:05:53.337Z,997.01
2018-02-03T11:06:47.565Z,997.06
2018-02-03T11:07:39.577Z,997.02
2018-02-03T11:08:34.566Z,996.99
2018-02-03T11:09:27.197Z,996.93
2018-02-03T11:10:19.298Z,996.96
2018-02-03T11:11:04.343Z,996.99
2018-02-03T11:11:44.831Z,996.94
2018-02-03T11:12:25.338Z,996.92
2018-02-03T11:13:05.796Z,996.93
2018-02-03T11:13:46.252Z,996.93
2018-02-03T11:14:26.917Z,997.03
2018-02-03T11:15:07.350Z,996.94
2018-02-03T11:15:47.732Z,996.94
2018-02-03T11:16:31.169Z,996.9
2018-02-03T11:17:11.692Z,996.89
2018-02-03T11:17:52.132Z,996.87
2018-02-03T11:18:32.698Z,996.91
2018-02-03T11:19:13.520Z,996.94
2018-02-03T11:19:53.621Z,996.87
2018-02-03T11:20:35.460Z,996.89
2018-02-03T11:25:32.905Z,996.79
2018-02-03T11:26:26.260Z,996.85
2018-02-03T11:27:19.286Z,996.83
2018-02-03T11:28:11.691Z,996.83
2018-02-03T11:29:03.920Z,996.84
2018-02-03T11:29:56.030Z,996.83
2018-02-03T11:30:48.436Z,996.76
2018-02-03T11:31:40.548Z,996.8
2018-02-03T11:32:33.159Z,996.8
2018-02-03T11:33:26.363Z,996.82
2018-02-03T11:34:18.720Z,996.85
2018-02-03T11:35:11.336Z,996.84
2018-02-03T11:36:03.282Z,996.75